Accueil
METAR-TAF:

METAR-TAF

Aéroports :

Tarente, Italie

latitude: 40-31N, longitude: 017-24E, altitude: 64 m

Observation

Le bulletin a été fait il y a 3 heures et 15 minutes, à 17:50 UTC
Vent 6 kt de nord
Température 18°C
Humidité 59%
Pression 1014 hPa
Visibilité 10 km ou plus
Quelques nuages à une hauteur de 3500 ft

METAR: LIBG 311750Z 01006KT 9999 FEW035 18/10 Q1014

Heure: 23:05 (21:05 UTC)

Prévision

Le bulletin a été fait il y a 7 heures et 5 minutes, à 14:00 UTC
Prévision valable du 31 à 15 UTC au 31 à 24 UTC
Vent 10 kt de sud-ouest
Visibilité 10 km ou plus
Nuages épars à une hauteur de 2500 ft
Evoluant progressivement
du 31 à 15 UTC au 31 à 17 UTC
Vent 5 kt de direction variable

TAF: LIBG 311400Z 3115/3124 23010KT 9999 SCT025 BECMG 3115/3117 VRB05KT

Observations et prévisions météorologiques de plus de 4000 aéroports (messages METAR et TAF).

Les stations disponibles sont représentées par des disques jaunes et rouges sur la carte.

Passer la souris dessus pour voir le nom de la station.

Cliquer dessus pour voir les observations et prévisions météorologiques.

Pour changer de carte: cliquez sur les boutons verts avec une croix noire pour zoomer, sur le bouton vert avec un tiret pour effectuer un zoom arrière, ou sur les flèches vertes pour les cartes adjacentes.


METAR-TAF: